LM321 / G-SAJL 7700 Squawk Report (28th of September, 2020)

Aircraft E145 Reg No. G-SAJL Age N/A
Model ERJ-145 Jet engines 2 First flight 06-99
Registered 11-04-19 Rollout 05-99 Delivered 18-06-99
Construction No. 145136 Line No. N/A Series EP
ADSHEX 4007DA Airline name Loganair Owner N/A
Airfield based Glasgow~Renfrewshire~G First tracked N/A

Flight history for G-SAJL

Route Flight No Date Playback
Liverpool (LPL) - Isle Of Man (IOM) LM686 2020-10-20 17:22:00
Isle Of Man (IOM) - Liverpool (LPL) LM685 2020-10-20 16:01:00
Manchester (MAN) - Isle Of Man (IOM) N/A 2020-10-20 14:58:00
Isle Of Man (IOM) - Manchester (MAN) LM525 2020-10-20 13:30:00
Liverpool (LPL) - Isle Of Man (IOM) LM682 2020-10-20 07:44:00
Isle Of Man (IOM) - Liverpool (LPL) LM681 2020-10-20 06:35:00
Liverpool (LPL) - Isle Of Man (IOM) LM686 2020-10-19 17:23:00
Isle Of Man (IOM) - Liverpool (LPL) LM685 2020-10-19 16:20:00
Manchester (MAN) - Isle Of Man (IOM) N/A 2020-10-19 14:55:00
Isle Of Man (IOM) - Manchester (MAN) LM525 2020-10-19 13:29:00
Liverpool (LPL) - Isle Of Man (IOM) LM682 2020-10-19 09:10:00
Isle Of Man (IOM) - Liverpool (LPL) LM681 2020-10-19 08:05:00
Liverpool (LPL) - Isle Of Man (IOM) LM686 2020-10-18 20:10:00
Isle Of Man (IOM) - Liverpool (LPL) LM685 2020-10-18 19:11:00
Glasgow (GLA) - Southampton (SOU) LM491 2020-10-18 18:01:00
Stornoway (SYY) - Glasgow (GLA) N/A 2020-10-16 18:15:00
Glasgow (GLA) - Stornoway (SYY) N/A 2020-10-16 16:50:00
Southampton (SOU) - Glasgow (GLA) LM492 2020-10-16 09:48:00
Glasgow (GLA) - Southampton (SOU) LM491 2020-10-16 09:02:00
Southampton (SOU) - Glasgow (GLA) LM498 2020-10-15 19:07:00
Time Lat Lon Altitude Heading Speed Vertical Rate
2020-09-28 06:16:46 GMT 55.239117 -3.391751 10,950 43 299 -840
2020-09-28 06:16:05 GMT 55.197678 -3.459829 11,650 58 321 -1320
2020-09-28 06:15:39 GMT 55.169857 -3.508959 12,000 74 340 -1260
2020-09-28 06:15:24 GMT 55.159775 -3.546891 12,225 92 336 -1500
2020-09-28 06:15:14 GMT 55.158199 -3.573468 12,500 110 369 -2040
2020-09-28 06:15:01 GMT 55.163002 -3.610557 12,625 125 364 -4320
2020-09-28 06:14:49 GMT 55.174728 -3.640838 13,350 141 354 -3480
2020-09-28 06:14:39 GMT 55.187504 -3.658813 13,775 169 356 -4260
2020-09-28 06:14:29 GMT 55.203712 -3.664007 14,525 154 296 -3420
2020-09-28 06:14:18 GMT 55.219193 -3.673798 15,100 171 319 -5520
2020-09-28 06:14:08 GMT 55.233841 -3.677439 15,900 171 345 -3060
2020-09-28 06:13:56 GMT 55.252903 -3.682112 16,700 171 333 -3360
2020-09-28 06:13:46 GMT 55.268166 -3.686058 17,650 170 309 -2340
2020-09-28 06:13:35 GMT 55.283684 -3.690580 17,975 182 346 -33540
2020-09-28 06:13:23 GMT 55.301727 -3.695641 18,675 172 315 28320
2020-09-28 06:13:10 GMT 55.336246 -3.704840 19,225 171 333 -2760
2020-09-28 06:12:59 GMT 55.336246 -3.704840 19,525 170 314 -1860
2020-09-28 06:12:49 GMT 55.349827 -3.708956 19,850 170 335 -1500
2020-09-28 06:12:38 GMT 55.366749 -3.713800 20,225 170 350 -1020
2020-09-28 06:12:27 GMT 55.384109 -3.718084 20,375 175 349 -1020
2020-09-28 06:12:16 GMT 55.400513 -3.722734 20,625 171 359 -960
2020-09-28 06:12:06 GMT 55.416962 -3.726993 26,475 171 312 -660
2020-09-28 06:11:53 GMT 55.437057 -3.732167 21,025 170 309 -420
2020-09-28 06:11:42 GMT 55.453262 -3.736619 21,150 171 324 300
2020-09-28 06:11:31 GMT 55.467934 -3.741422 21,150 172 324 420
2020-09-28 06:11:20 GMT 55.484116 -3.745712 21,075 171 271 1500
2020-09-28 06:11:09 GMT 55.499187 -3.750116 21,000 171 287 1320
2020-09-28 06:10:59 GMT 55.511948 -3.753509 20,675 169 266 1560
2020-09-28 06:10:49 GMT 55.524105 -3.757360 20,375 170 293 3000
2020-09-28 06:10:38 GMT 55.539047 -3.762209 20,050 170 302 2640
2020-09-28 06:10:28 GMT 55.552837 -3.766341 19,750 170 252 1740
2020-09-28 06:10:18 GMT 55.564686 -3.769515 19,475 169 295 2760
2020-09-28 06:10:07 GMT 55.579502 -3.774320 19,150 169 278 1680
2020-09-28 06:09:55 GMT 55.595119 -3.779581 18,800 175 255 1380
2020-09-28 06:09:44 GMT 55.608196 -3.783141 18,500 172 269 1980
2020-09-28 06:09:34 GMT 55.621204 -3.787077 18,225 172 274 3240
2020-09-28 06:09:24 GMT 55.632877 -3.790505 17,875 169 275 3000
2020-09-28 06:09:13 GMT 55.647038 -3.794535 17,550 170 279 840
2020-09-28 06:09:03 GMT 55.659817 -3.798278 17,250 173 262 2280
2020-09-28 06:08:52 GMT 55.673141 -3.799779 16,825 189 247 1620
2020-09-28 06:08:40 GMT 55.686691 -3.795920 16,275 192 260 1740
2020-09-28 06:08:14 GMT 55.729885 -3.779234 15,375 192 257 2520
2020-09-28 06:08:04 GMT 55.729885 -3.779234 15,000 191 238
2020-09-28 06:07:53 GMT 55.742249 -3.774556 14,650 193 227

Making use of Plane Finder data

You are free to use the raw flight data, aircraft information and images provided in this report for your own purposes provided the data is correctly attributed to Plane Finder. We ask that you please credit Plane Finder and link to planefinder.net in close proximity to the content.

Optionally one of the following logos (no smaller then 150x24px) can be used and must link to planefinder.net

Embedding the Plane Finder map

You are welcome to embed the Plane Finder playback map on your website to offer visitors a more interactive experience. We suggest using the following HTML code:

<iframe src="//planefinder.net/data/report/LM321-G-SAJL-7700-squawk-2020-09-28/map" width="800" height="600" seamless="seamless"></iframe>

Where our data comes from

Plane Finder has a global network of data feeds and antenna radars that receive data broadcast directly from aircraft. The primary technologies used are ADS-B and MLAT. We also show feeds from the FAA and a FLARM glider feed.

Click here to find out more about the Plane Finder network.

How we collect our data